Panelas, Brazil
Current Conditions -  °F | °C
As of 1:00 PM on Friday 28 Nov 2014 (Local Time) from SBMO Reporting Station
Rain Showers Rain Showers  
Wind Chill: 82°   Ceiling: 2000
Heat Index: 89°   Visibility: 6mi
Dew Point: 75°   Wind: 14mph
Humidity: 79%   Direction: 130°SE
Pressure: 29.94"   Gusts: NA
Location:  8.66°S, 36.01°W
Report Text: SBMO 281600Z 13012KT 9999 VCSH BKN020 SCT100 28/24 Q1014
Loading
Personal Weather Stations






























Interactive Weather Map New forecast layout! Learn more

10-Day Weather Forecast

Advertisements
Track Severe Weather on mobile